Terminal Aerodrome Forecast
Issued by NWS Blacksburg, VA

Home | Current Version | Previous Version | Text Only | Print | Product List | Glossary On
Versions: 1 2 3 4 5 6 7 8 9 10 11 12 13 14 15 16 17 18 19 20 21 22 23 24 25 26 27 28 29 30
000
FTUS41 KRNK 241139 AAA
TAFDAN
TAF AMD
KDAN 241139Z 2412/2512 31008KT P6SM SCT045 BKN100
     FM241700 31013G20KT P6SM SCT110
     FM242300 29008KT P6SM SKC
     FM250200 28004KT P6SM SKC=

USA.gov is the U.S. government's official web portal to all federal, state and local government web resources and services.